Warren, MN (56762)

1:14 AM CDT on April 21, 2015 (GMT -0500)
KNDGRAND8 | | Change Station
CLOSE
Current Station
Personal Weather Station
Location: Grand Forks, ND
Elevation: 830 ft
Nearby Weather Stations

Elev 830 ft 47.94 °N, 97.06 °W | Updated 9 seconds ago

Overcast
Overcast
32.9 °F
Feels Like 24 °F
N
11.0
Wind Variable Wind from NW
Gusts 15.0 mph

Today
High -- | Low -- °F
--% Chance of Precip.
Yesterday
High -- | Low -- °F
Precip. -- in
6:26 AM 8:26 PM
Waxing Crescent, 8% visible
Pressure 29.66 in
Visibility 10.0 miles
Clouds Few 2500 ft
Mostly Cloudy 3400 ft
Overcast 4400 ft
Windchill 24 °F
Dew Point 29 °F
Humidity 83%
Rainfall 0.00 in
Snow Depth Not available.
UV 0 out of 12
Pollen 10.20 out of 12
Air Quality Not available.
Flu Activity Local Activity
METAR KGFK 210553Z 32016G26KT 10SM FEW025 BKN034 OVC044 01/M03 A2963 RMK AO2 PK WND 33026/0548 SLP043 60000 T00111028 10028 20006 400330000 58007

More Conditions Fewer Conditions

Pressure 29.66 in
Visibility 10.0 miles
Clouds Few 2500 ft
Mostly Cloudy 3400 ft
Overcast 4400 ft
Windchill 24 °F
Dew Point 29 °F
Humidity 83%
Rainfall 0.00 in
Snow Depth Not available.
UV 0 out of 12
Pollen 10.20 out of 12
Air Quality Not available.
Flu Activity Local Activity
METAR KGFK 210553Z 32016G26KT 10SM FEW025 BKN034 OVC044 01/M03 A2963 RMK AO2 PK WND 33026/0548 SLP043 60000 T00111028 10028 20006 400330000 58007

More Conditions Fewer Conditions

10-Day Weather Forecast

Almanac

Astronomy

Apr. 21, 2015 Rise Set
Actual Time
Civil Twilight
Nautical Twilight
Astronomical Twilight
Moon
Length of Visible Light
Length of Day
Tomorrow will be .
, % of the Moon is Illuminated

Today's Extremes

State Highs State Lows

Community

WunderPhotos

Upload Photos

1,815,317 photos uploaded!

WunderBlogs® & News

Nearby

Air Quality

  Air Quality AQ Index Pollutant
Not available.

Snow Depth

Station Depth Elevation

Earthquake Activity

City Distance Mag. Time & Date
Minimum magnitude displayed is 2.5.

Coastal Water Temperatures

Place Temperature

Stations

Nearby Weather Stations

Station Location Temp. Windchill Dew Point Humidity Wind Precip. Elev Updated Type